Time;durP1;ratioP1;P1;durP2;ratioP2;P2;SDS_P1;SDS_P2;PMS_P1;PMS_P2;Temp;Humidity;BMP_temperature;BMP_pressure;BME280_temperature;BME280_humidity;BME280_pressure;Samples;Min_cycle;Max_cycle;Signal;HPM_P1;HPM_P2
2021/09/29 00:01:42;;;;;;;;;;;11.50;99.90;;;;;;5053991;28;19912;-86
2021/09/29 00:04:08;;;;;;;;;;;11.50;99.90;;;;;;5053202;28;19913;-86
2021/09/29 00:06:33;;;;;;;;;;;11.50;99.90;;;;;;5043130;28;19951;-86
2021/09/29 00:08:59;;;;;;;;;;;11.50;99.90;;;;;;5051280;28;20398;-86
2021/09/29 00:11:24;;;;;;;;;;;11.40;99.90;;;;;;5070024;28;20391;-86
2021/09/29 00:13:49;;;;;;;;;;;11.30;99.90;;;;;;5059765;28;19909;-85
2021/09/29 00:16:15;;;;;;;;;;;11.30;99.90;;;;;;5038547;28;20379;-86
2021/09/29 00:18:41;;;;;;;;;;;11.20;99.90;;;;;;5054494;28;19963;-86
2021/09/29 00:21:07;;;;;;;;;;;11.20;99.90;;;;;;5065065;28;19956;-86
2021/09/29 00:23:32;;;;;;;;;;;11.20;99.90;;;;;;5047909;28;20261;-86
2021/09/29 00:25:58;;;;;;;;;;;11.10;99.90;;;;;;5051462;28;20014;-86
2021/09/29 00:28:23;;;;;;;;;;;11.10;99.90;;;;;;5051258;28;19916;-86
2021/09/29 00:31:03;;;;;;;;;;;11.00;99.90;;;;;;5051098;28;19931;-86
2021/09/29 00:33:29;;;;;;;;;;;11.00;99.90;;;;;;5055527;28;19991;-87
2021/09/29 00:35:55;;;;;;;;;;;11.00;99.90;;;;;;5047724;28;20003;-86
2021/09/29 00:38:20;;;;;;;;;;;11.00;99.90;;;;;;5057098;28;19944;-86
2021/09/29 00:40:48;;;;;;;;;;;11.00;99.90;;;;;;5056857;28;20364;-86
2021/09/29 00:43:13;;;;;;;;;;;11.00;99.90;;;;;;5038607;28;20296;-86
2021/09/29 00:45:39;;;;;;;;;;;11.00;99.90;;;;;;5041066;28;19919;-86
2021/09/29 00:48:04;;;;;;;;;;;10.90;99.90;;;;;;5074684;28;19952;-86
2021/09/29 00:50:30;;;;;;;;;;;10.80;99.90;;;;;;5055055;28;20448;-87
2021/09/29 00:52:57;;;;;;;;;;;10.80;99.90;;;;;;5050354;28;20003;-86
2021/09/29 00:55:22;;;;;;;;;;;10.80;99.90;;;;;;5050352;28;19912;-86
2021/09/29 00:57:48;;;;;;;;;;;10.70;99.90;;;;;;5055365;28;20115;-86
2021/09/29 01:00:13;;;;;;;;;;;10.70;99.90;;;;;;5045134;28;19916;-86
2021/09/29 01:02:39;;;;;;;;;;;10.70;99.90;;;;;;5056238;28;19942;-86
2021/09/29 01:05:05;;;;;;;;;;;10.70;99.90;;;;;;5049861;28;20360;-85
2021/09/29 01:07:37;;;;;;;;;;;10.70;99.90;;;;;;5056327;28;20288;-86
2021/09/29 01:10:22;;;;;;;;;;;10.70;99.90;;;;;;5048679;28;19954;-85
2021/09/29 01:12:53;;;;;;;;;;;10.60;99.90;;;;;;5053104;28;20303;-87
2021/09/29 01:15:21;;;;;;;;;;;10.50;99.90;;;;;;5054437;28;19909;-86
2021/09/29 01:17:47;;;;;;;;;;;10.50;99.90;;;;;;5056744;28;19909;-87
2021/09/29 01:20:21;;;;;;;;;;;10.50;99.90;;;;;;5072864;28;20394;-86
2021/09/29 01:23:09;;;;;;;;;;;10.50;99.90;;;;;;5067363;28;20322;-87
2021/09/29 01:25:54;;;;;;;;;;;10.40;99.90;;;;;;5053818;28;19940;-86
2021/09/29 01:28:21;;;;;;;;;;;10.30;99.90;;;;;;5058204;28;19908;-86
2021/09/29 01:30:47;;;;;;;;;;;10.20;99.90;;;;;;5055979;28;20352;-86
2021/09/29 01:33:13;;;;;;;;;;;10.20;99.90;;;;;;5073622;28;19909;-86
2021/09/29 01:35:40;;;;;;;;;;;10.20;99.90;;;;;;5055903;28;19985;-86
2021/09/29 01:38:06;;;;;;;;;;;10.20;99.90;;;;;;5055917;28;19909;-85
2021/09/29 01:40:32;;;;;;;;;;;10.20;99.90;;;;;;5055882;28;20394;-85
2021/09/29 01:42:57;;;;;;;;;;;10.20;99.90;;;;;;5047063;28;19964;-86
2021/09/29 01:45:23;;;;;;;;;;;10.20;99.90;;;;;;5053189;28;19909;-86
2021/09/29 01:47:48;;;;;;;;;;;10.20;99.90;;;;;;5049733;28;19958;-86
2021/09/29 01:50:17;;;;;;;;;;;10.20;99.90;;;;;;5049239;28;19908;-85
2021/09/29 01:52:45;;;;;;;;;;;10.10;99.90;;;;;;5053920;28;19912;-86
2021/09/29 01:55:13;;;;;;;;;;;10.00;99.90;;;;;;5049302;28;19908;-86
2021/09/29 01:57:41;;;;;;;;;;;10.00;99.90;;;;;;5049605;28;19939;-86
2021/09/29 02:00:07;;;;;;;;;;;10.00;99.90;;;;;;5044410;28;19909;-86
2021/09/29 02:02:33;;;;;;;;;;;10.00;99.90;;;;;;5054980;28;19938;-85
2021/09/29 02:04:58;;;;;;;;;;;10.10;99.90;;;;;;5053553;28;20360;-86
2021/09/29 02:07:26;;;;;;;;;;;10.20;99.90;;;;;;5051169;28;20371;-86
2021/09/29 02:09:52;;;;;;;;;;;10.20;99.90;;;;;;5055161;28;19982;-86
2021/09/29 02:12:17;;;;;;;;;;;10.20;99.90;;;;;;5048789;28;20405;-86
2021/09/29 02:14:43;;;;;;;;;;;10.10;99.90;;;;;;5035812;28;19948;-86
2021/09/29 02:17:09;;;;;;;;;;;10.00;99.90;;;;;;5048930;28;19909;-86
2021/09/29 02:19:35;;;;;;;;;;;9.90;99.90;;;;;;5053228;28;19978;-87
2021/09/29 02:22:00;;;;;;;;;;;9.90;99.90;;;;;;5072656;28;19912;-86
2021/09/29 02:24:26;;;;;;;;;;;9.80;99.90;;;;;;5041474;28;19916;-86
2021/09/29 02:26:51;;;;;;;;;;;9.80;99.90;;;;;;5060224;28;19908;-86
2021/09/29 02:29:17;;;;;;;;;;;9.80;99.90;;;;;;5050045;28;19963;-86
2021/09/29 02:31:43;;;;;;;;;;;9.80;99.90;;;;;;5048980;28;19963;-87
2021/09/29 02:34:09;;;;;;;;;;;9.70;99.90;;;;;;5072720;28;19909;-87
2021/09/29 02:36:34;;;;;;;;;;;9.70;99.90;;;;;;5081752;28;19915;-87
2021/09/29 02:39:00;;;;;;;;;;;9.60;99.90;;;;;;5088242;28;19909;-86
2021/09/29 02:41:25;;;;;;;;;;;9.60;99.90;;;;;;5068696;28;19912;-86
2021/09/29 02:43:51;;;;;;;;;;;9.60;99.90;;;;;;5045301;28;19933;-86
2021/09/29 02:46:17;;;;;;;;;;;9.50;99.90;;;;;;5035435;28;19909;-86
2021/09/29 02:48:42;;;;;;;;;;;9.40;99.90;;;;;;5048799;28;19915;-86
2021/09/29 02:51:08;;;;;;;;;;;9.50;99.90;;;;;;5059818;28;19917;-87
2021/09/29 02:53:33;;;;;;;;;;;9.50;99.90;;;;;;5048045;28;19909;-86
2021/09/29 02:56:00;;;;;;;;;;;9.60;99.90;;;;;;5054806;28;19917;-86
2021/09/29 02:58:26;;;;;;;;;;;9.70;99.90;;;;;;5070940;28;19908;-87
2021/09/29 03:00:52;;;;;;;;;;;9.60;99.90;;;;;;5064608;28;19953;-86
2021/09/29 03:03:18;;;;;;;;;;;9.70;99.90;;;;;;5070653;28;19965;-86
2021/09/29 03:05:44;;;;;;;;;;;9.80;99.90;;;;;;5055789;28;20306;-86
2021/09/29 03:08:10;;;;;;;;;;;9.90;99.90;;;;;;5051554;28;19914;-86
2021/09/29 03:10:37;;;;;;;;;;;10.00;99.90;;;;;;5064424;28;19912;-87
2021/09/29 03:13:03;;;;;;;;;;;10.10;99.90;;;;;;5039455;28;19909;-86
2021/09/29 03:15:29;;;;;;;;;;;10.10;99.90;;;;;;5045388;28;19909;-88
2021/09/29 03:17:54;;;;;;;;;;;10.10;99.90;;;;;;5054097;28;19914;-87
2021/09/29 03:20:20;;;;;;;;;;;10.20;99.90;;;;;;5054471;28;19962;-86
2021/09/29 03:22:45;;;;;;;;;;;10.30;99.90;;;;;;5071793;28;19966;-86
2021/09/29 03:25:11;;;;;;;;;;;10.30;99.90;;;;;;5054221;28;20003;-88
2021/09/29 03:27:36;;;;;;;;;;;10.30;99.90;;;;;;5039539;28;19909;-86
2021/09/29 03:30:02;;;;;;;;;;;10.20;99.90;;;;;;5052769;28;19913;-87
2021/09/29 03:32:28;;;;;;;;;;;10.10;99.90;;;;;;5047900;28;19989;-87
2021/09/29 03:34:53;;;;;;;;;;;10.20;99.90;;;;;;5047920;28;19962;-88
2021/09/29 03:37:19;;;;;;;;;;;10.10;99.90;;;;;;5047747;28;19915;-86
2021/09/29 03:39:44;;;;;;;;;;;9.90;99.90;;;;;;5048137;28;20030;-85
2021/09/29 03:42:10;;;;;;;;;;;9.90;99.90;;;;;;5044997;28;20257;-86
2021/09/29 03:44:35;;;;;;;;;;;9.90;99.90;;;;;;5052009;28;19909;-86
2021/09/29 03:47:01;;;;;;;;;;;9.90;99.90;;;;;;5047846;28;20006;-86
2021/09/29 03:49:26;;;;;;;;;;;9.90;99.90;;;;;;5062371;28;19909;-86
2021/09/29 03:51:52;;;;;;;;;;;10.00;99.90;;;;;;5057798;28;19909;-86
2021/09/29 03:54:17;;;;;;;;;;;10.00;99.90;;;;;;5057832;28;19965;-87
2021/09/29 03:56:43;;;;;;;;;;;9.90;99.90;;;;;;5091172;28;20014;-86
2021/09/29 03:59:08;;;;;;;;;;;9.90;99.90;;;;;;5075511;28;20330;-86
2021/09/29 04:01:34;;;;;;;;;;;9.90;99.90;;;;;;5075509;28;19923;-86
2021/09/29 04:03:59;;;;;;;;;;;9.80;99.90;;;;;;5075204;28;19955;-86
2021/09/29 04:06:25;;;;;;;;;;;9.80;99.90;;;;;;5075557;28;20007;-86
2021/09/29 04:08:50;;;;;;;;;;;9.80;99.90;;;;;;5057999;28;19908;-86
2021/09/29 04:11:16;;;;;;;;;;;9.80;99.90;;;;;;5054931;28;19951;-86
2021/09/29 04:13:41;;;;;;;;;;;9.80;99.90;;;;;;5074473;28;20334;-87
2021/09/29 04:16:07;;;;;;;;;;;9.70;99.90;;;;;;5054829;28;19965;-87
2021/09/29 04:18:32;;;;;;;;;;;9.70;99.90;;;;;;5059231;28;20364;-86
2021/09/29 04:20:58;;;;;;;;;;;9.70;99.90;;;;;;5054433;28;20376;-87
2021/09/29 04:23:24;;;;;;;;;;;9.70;99.90;;;;;;5041337;28;20287;-86
2021/09/29 04:25:52;;;;;;;;;;;9.60;99.90;;;;;;5053704;28;20849;-86
2021/09/29 04:28:18;;;;;;;;;;;9.70;99.90;;;;;;5057481;28;20034;-86
2021/09/29 04:30:43;;;;;;;;;;;9.70;99.90;;;;;;5074898;28;19919;-87
2021/09/29 04:33:09;;;;;;;;;;;9.60;99.90;;;;;;5056991;28;20490;-87
2021/09/29 04:35:34;;;;;;;;;;;9.50;99.90;;;;;;5057269;28;20329;-86
2021/09/29 04:38:00;;;;;;;;;;;9.50;99.90;;;;;;5057053;28;19935;-87
2021/09/29 04:40:25;;;;;;;;;;;9.50;99.90;;;;;;5074727;28;19909;-87
2021/09/29 04:42:51;;;;;;;;;;;9.50;99.90;;;;;;5066753;28;19955;-87
2021/09/29 04:45:16;;;;;;;;;;;9.40;99.90;;;;;;5054250;28;19909;-87
2021/09/29 04:47:42;;;;;;;;;;;9.40;99.90;;;;;;5051456;28;19909;-85
2021/09/29 04:50:08;;;;;;;;;;;9.40;99.90;;;;;;5050289;28;19913;-86
2021/09/29 04:52:33;;;;;;;;;;;9.40;99.90;;;;;;5056542;28;19912;-87
2021/09/29 04:54:59;;;;;;;;;;;9.40;99.90;;;;;;5061377;28;20330;-86
2021/09/29 04:57:24;;;;;;;;;;;9.30;99.90;;;;;;5056741;28;19917;-86
2021/09/29 04:59:50;;;;;;;;;;;9.30;99.90;;;;;;5061793;28;20434;-86
2021/09/29 05:02:15;;;;;;;;;;;9.20;99.90;;;;;;5056209;28;20287;-86
2021/09/29 05:04:41;;;;;;;;;;;9.20;99.90;;;;;;5057568;28;20008;-86
2021/09/29 05:07:13;;;;;;;;;;;9.40;99.90;;;;;;5044771;28;20360;-86
2021/09/29 05:09:39;;;;;;;;;;;9.30;99.90;;;;;;5070935;28;19913;-87
2021/09/29 05:12:07;;;;;;;;;;;9.30;99.90;;;;;;5057866;28;20364;-87
2021/09/29 05:14:33;;;;;;;;;;;9.30;99.90;;;;;;5044216;28;19909;-86
2021/09/29 05:16:59;;;;;;;;;;;9.40;99.90;;;;;;5049897;28;19958;-87
2021/09/29 05:19:24;;;;;;;;;;;9.40;99.90;;;;;;5056628;28;20459;-87
2021/09/29 05:21:50;;;;;;;;;;;9.20;99.90;;;;;;5072867;28;19919;-86
2021/09/29 05:24:15;;;;;;;;;;;9.20;99.90;;;;;;5057564;28;19909;-86
2021/09/29 05:26:41;;;;;;;;;;;9.20;99.90;;;;;;5056184;28;19951;-86
2021/09/29 05:29:07;;;;;;;;;;;9.20;99.90;;;;;;5073984;28;19908;-86
2021/09/29 05:31:33;;;;;;;;;;;9.20;99.90;;;;;;5056004;28;19963;-86
2021/09/29 05:33:59;;;;;;;;;;;9.10;99.90;;;;;;5045054;28;20501;-86
2021/09/29 05:36:24;;;;;;;;;;;9.00;99.90;;;;;;5054764;28;19952;-86
2021/09/29 05:38:50;;;;;;;;;;;8.90;99.90;;;;;;5053670;28;19916;-86
2021/09/29 05:41:15;;;;;;;;;;;8.90;99.90;;;;;;5056936;28;19908;-86
2021/09/29 05:43:41;;;;;;;;;;;9.00;99.90;;;;;;5048107;28;20456;-87
2021/09/29 05:46:06;;;;;;;;;;;9.00;99.90;;;;;;5049034;28;19916;-89
2021/09/29 05:48:32;;;;;;;;;;;9.00;99.90;;;;;;5061740;28;19943;-88
2021/09/29 05:50:58;;;;;;;;;;;9.00;99.90;;;;;;5064114;28;20886;-88
2021/09/29 05:53:24;;;;;;;;;;;9.00;99.90;;;;;;5065458;28;19930;-88
2021/09/29 05:55:50;;;;;;;;;;;9.10;99.90;;;;;;5042147;28;20376;-87
2021/09/29 05:58:15;;;;;;;;;;;9.10;99.90;;;;;;5063778;28;19909;-87
2021/09/29 06:00:40;;;;;;;;;;;9.20;99.90;;;;;;5047949;28;20269;-88
2021/09/29 06:03:09;;;;;;;;;;;9.20;99.90;;;;;;5068863;28;19920;-88
2021/09/29 06:05:34;;;;;;;;;;;9.20;99.90;;;;;;5052528;28;19908;-87
2021/09/29 06:08:00;;;;;;;;;;;9.30;99.90;;;;;;5046828;28;19909;-87
2021/09/29 06:10:25;;;;;;;;;;;9.40;99.90;;;;;;5070150;28;19955;-89
2021/09/29 06:12:51;;;;;;;;;;;9.50;99.90;;;;;;5079569;28;19963;-88
2021/09/29 06:15:22;;;;;;;;;;;9.40;99.90;;;;;;5049550;28;19909;-87
2021/09/29 06:17:56;;;;;;;;;;;9.50;99.90;;;;;;5044104;28;20281;-89
2021/09/29 06:20:22;;;;;;;;;;;9.60;99.90;;;;;;5057175;28;19909;-88
2021/09/29 06:22:50;;;;;;;;;;;9.70;99.90;;;;;;5050919;28;19927;-89
2021/09/29 06:25:16;;;;;;;;;;;9.80;99.90;;;;;;5043964;28;20339;-87
2021/09/29 06:27:43;;;;;;;;;;;9.90;99.90;;;;;;5073424;28;19959;-85
2021/09/29 06:30:08;;;;;;;;;;;9.80;99.90;;;;;;5066021;28;19917;-86
2021/09/29 06:32:34;;;;;;;;;;;10.00;99.90;;;;;;5045383;28;20229;-87
2021/09/29 06:35:02;;;;;;;;;;;10.10;99.90;;;;;;5050222;28;19908;-86
2021/09/29 06:37:30;;;;;;;;;;;10.20;99.90;;;;;;5036554;28;19909;-88
2021/09/29 06:39:55;;;;;;;;;;;10.30;99.90;;;;;;5053680;28;19909;-86
2021/09/29 06:42:21;;;;;;;;;;;10.30;99.90;;;;;;5060633;28;19966;-87
2021/09/29 06:44:46;;;;;;;;;;;10.40;99.90;;;;;;5045419;28;19916;-87
2021/09/29 06:47:12;;;;;;;;;;;10.50;99.90;;;;;;5035598;28;19909;-87
2021/09/29 06:49:37;;;;;;;;;;;10.60;99.90;;;;;;5048738;28;20287;-86
2021/09/29 06:52:05;;;;;;;;;;;10.80;99.90;;;;;;5053958;28;19916;-87
2021/09/29 06:54:32;;;;;;;;;;;10.80;99.90;;;;;;5026402;28;19919;-88
2021/09/29 06:56:58;;;;;;;;;;;10.90;99.90;;;;;;5038620;28;19967;-86
2021/09/29 06:59:23;;;;;;;;;;;11.10;99.90;;;;;;5035042;28;20261;-86
2021/09/29 07:01:49;;;;;;;;;;;11.40;99.90;;;;;;5054928;28;19913;-87
2021/09/29 07:04:14;;;;;;;;;;;11.60;99.90;;;;;;5041484;28;19931;-87
2021/09/29 07:06:40;;;;;;;;;;;11.60;99.90;;;;;;5049048;28;20276;-89
2021/09/29 07:09:05;;;;;;;;;;;11.50;99.90;;;;;;5034607;28;19909;-86
2021/09/29 07:11:31;;;;;;;;;;;11.50;99.90;;;;;;5054101;28;20330;-89
2021/09/29 07:13:57;;;;;;;;;;;11.60;99.90;;;;;;5049905;28;19908;-87
2021/09/29 07:16:25;;;;;;;;;;;11.70;99.90;;;;;;5041805;28;19909;-86
2021/09/29 07:18:51;;;;;;;;;;;11.90;99.90;;;;;;5068409;28;19909;-86
2021/09/29 07:21:17;;;;;;;;;;;12.00;99.90;;;;;;5052798;28;20318;-88
2021/09/29 07:23:42;;;;;;;;;;;12.10;99.90;;;;;;5040347;28;19923;-87
2021/09/29 07:26:08;;;;;;;;;;;12.30;99.90;;;;;;5070773;28;19942;-87
2021/09/29 07:28:38;;;;;;;;;;;12.70;99.90;;;;;;5054025;28;19955;-87
2021/09/29 07:31:04;;;;;;;;;;;13.20;99.90;;;;;;5054789;28;19909;-90
2021/09/29 07:33:37;;;;;;;;;;;13.60;99.90;;;;;;5049895;28;20261;-88
2021/09/29 07:36:02;;;;;;;;;;;13.50;99.90;;;;;;5053391;28;19999;-87
2021/09/29 07:38:31;;;;;;;;;;;13.30;99.90;;;;;;5065753;28;19978;-89
2021/09/29 07:41:05;;;;;;;;;;;13.20;99.90;;;;;;5047763;28;19908;-89
2021/09/29 07:43:31;;;;;;;;;;;13.10;99.90;;;;;;5040478;28;19913;-87
2021/09/29 07:45:57;;;;;;;;;;;13.10;99.90;;;;;;5046393;28;19923;-88
2021/09/29 07:48:23;;;;;;;;;;;13.40;99.90;;;;;;5052723;28;19909;-88
2021/09/29 07:50:52;;;;;;;;;;;14.10;99.90;;;;;;5041573;28;19913;-88
2021/09/29 07:53:20;;;;;;;;;;;16.00;99.90;;;;;;5051637;28;19999;-88
2021/09/29 07:55:45;;;;;;;;;;;17.10;99.90;;;;;;5070891;28;20382;-88
2021/09/29 07:58:11;;;;;;;;;;;18.20;99.90;;;;;;5052146;28;19912;-86
2021/09/29 08:00:36;;;;;;;;;;;18.90;99.90;;;;;;5054950;28;19909;-87
2021/09/29 08:03:02;;;;;;;;;;;19.60;99.90;;;;;;5040714;28;19919;-88
2021/09/29 08:05:31;;;;;;;;;;;20.10;99.90;;;;;;5048753;28;19919;-88
2021/09/29 08:07:57;;;;;;;;;;;20.20;99.90;;;;;;5045249;28;19954;-87
2021/09/29 08:10:22;;;;;;;;;;;20.90;99.90;;;;;;5053424;28;19909;-87
2021/09/29 08:12:48;;;;;;;;;;;21.00;99.90;;;;;;5056298;28;19913;-89
2021/09/29 08:15:34;;;;;;;;;;;20.80;99.90;;;;;;5054397;28;19927;-89
2021/09/29 08:18:11;;;;;;;;;;;21.10;99.90;;;;;;5052651;28;19908;-88
2021/09/29 08:20:38;;;;;;;;;;;20.50;99.90;;;;;;5066572;28;19931;-87
2021/09/29 08:28:17;;;;;;;;;;;21.50;99.90;;;;;;5071813;28;19913;-88
2021/09/29 08:38:56;;;;;;;;;;;22.70;98.60;;;;;;5059912;28;19916;-87
2021/09/29 08:43:59;;;;;;;;;;;22.20;98.90;;;;;;5055538;28;20046;-87
2021/09/29 08:46:35;;;;;;;;;;;22.20;98.80;;;;;;5078047;28;19909;-87
2021/09/29 08:49:24;;;;;;;;;;;22.50;97.80;;;;;;5057748;28;19997;-90
2021/09/29 09:16:16;;;;;;;;;;;25.10;93.60;;;;;;5062679;28;20313;-88
2021/09/29 09:18:49;;;;;;;;;;;25.40;91.40;;;;;;5074259;28;20046;-86
2021/09/29 09:21:19;;;;;;;;;;;25.30;92.90;;;;;;5048003;28;20364;-87
2021/09/29 09:23:45;;;;;;;;;;;24.30;92.60;;;;;;5056753;28;19958;-86
2021/09/29 09:26:16;;;;;;;;;;;25.30;92.80;;;;;;5049867;28;19916;-87
2021/09/29 09:28:42;;;;;;;;;;;24.70;91.40;;;;;;5074262;28;19913;-89
2021/09/29 09:31:12;;;;;;;;;;;25.20;92.70;;;;;;5056106;28;19915;-88
2021/09/29 09:33:52;;;;;;;;;;;26.80;90.60;;;;;;5049725;28;20008;-88
2021/09/29 09:36:27;;;;;;;;;;;26.80;87.20;;;;;;5045002;28;19970;-86
2021/09/29 09:38:52;;;;;;;;;;;25.90;90.40;;;;;;5055680;28;20006;-86
2021/09/29 09:41:18;;;;;;;;;;;24.30;90.30;;;;;;5046838;28;19920;-86
2021/09/29 09:43:51;;;;;;;;;;;24.90;90.10;;;;;;5063207;28;19978;-86
2021/09/29 09:46:19;;;;;;;;;;;25.20;90.10;;;;;;5042416;28;20038;-87
2021/09/29 09:48:45;;;;;;;;;;;24.10;91.30;;;;;;5066951;28;19916;-87
2021/09/29 09:51:12;;;;;;;;;;;22.10;92.30;;;;;;5043445;28;20299;-87
2021/09/29 09:53:38;;;;;;;;;;;21.60;93.50;;;;;;5059596;28;19909;-86
2021/09/29 09:56:14;;;;;;;;;;;21.00;94.60;;;;;;5048290;28;19919;-88
2021/09/29 09:58:46;;;;;;;;;;;22.30;93.00;;;;;;5042729;28;19920;-87
2021/09/29 10:01:16;;;;;;;;;;;21.40;92.40;;;;;;5037066;28;19944;-88
2021/09/29 10:03:42;;;;;;;;;;;22.30;93.70;;;;;;5037536;28;19919;-87
2021/09/29 10:06:07;;;;;;;;;;;19.60;94.70;;;;;;5059538;28;19909;-88
2021/09/29 10:08:33;;;;;;;;;;;18.60;96.30;;;;;;5049461;28;19995;-89
2021/09/29 10:11:09;;;;;;;;;;;17.90;97.50;;;;;;5057188;28;19935;-88
2021/09/29 10:14:16;;;;;;;;;;;18.20;99.00;;;;;;5061687;28;19909;-86
2021/09/29 10:27:51;;;;;;;;;;;18.20;98.80;;;;;;5060333;28;19977;-86
2021/09/29 10:30:23;;;;;;;;;;;17.80;99.10;;;;;;5054922;28;19908;-88
2021/09/29 10:32:51;;;;;;;;;;;17.70;99.60;;;;;;5054917;28;20402;-86
2021/09/29 11:27:48;;;;;;;;;;;20.70;96.50;;;;;;5059845;28;19962;-87
2021/09/29 11:30:24;;;;;;;;;;;25.40;91.20;;;;;;5067135;28;19966;-85
2021/09/29 11:35:31;;;;;;;;;;;18.90;96.30;;;;;;5059293;28;19952;-86
2021/09/29 12:10:27;;;;;;;;;;;18.30;98.10;;;;;;5062644;28;19909;-87
2021/09/29 12:12:53;;;;;;;;;;;18.00;98.50;;;;;;5079085;28;19909;-86
2021/09/29 12:15:19;;;;;;;;;;;18.10;98.90;;;;;;5067544;28;19917;-84
2021/09/29 12:17:49;;;;;;;;;;;18.50;99.90;;;;;;5058341;28;19970;-88
2021/09/29 12:20:18;;;;;;;;;;;18.60;99.60;;;;;;5061890;28;19912;-86
2021/09/29 12:22:47;;;;;;;;;;;18.20;99.00;;;;;;5058316;28;19913;-87
2021/09/29 12:25:17;;;;;;;;;;;17.90;99.30;;;;;;5058406;28;19908;-86
2021/09/29 12:30:40;;;;;;;;;;;18.00;98.90;;;;;;5057026;28;20357;-87
2021/09/29 12:35:45;;;;;;;;;;;17.80;98.80;;;;;;5077675;28;19999;-86
2021/09/29 12:38:11;;;;;;;;;;;18.10;98.70;;;;;;5047527;28;19999;-86
2021/09/29 12:40:37;;;;;;;;;;;18.50;98.70;;;;;;5045835;28;19912;-85
2021/09/29 12:43:04;;;;;;;;;;;18.50;98.70;;;;;;5053866;28;19924;-86
2021/09/29 12:45:33;;;;;;;;;;;18.50;99.30;;;;;;5038024;28;20438;-86
2021/09/29 12:47:59;;;;;;;;;;;18.50;99.00;;;;;;5050608;28;20394;-87
2021/09/29 12:50:35;;;;;;;;;;;18.80;98.30;;;;;;5057594;28;19958;-88
2021/09/29 12:55:45;;;;;;;;;;;19.10;98.20;;;;;;5064566;28;19908;-86
2021/09/29 12:58:10;;;;;;;;;;;19.00;97.90;;;;;;5048832;28;19920;-85
2021/09/29 13:00:36;;;;;;;;;;;19.10;97.50;;;;;;5057284;28;19908;-85
2021/09/29 13:03:05;;;;;;;;;;;18.70;97.90;;;;;;5049280;28;19919;-85
2021/09/29 13:05:30;;;;;;;;;;;18.30;98.40;;;;;;5045937;28;20368;-85
2021/09/29 13:07:56;;;;;;;;;;;17.90;99.20;;;;;;5065874;28;19908;-85
2021/09/29 13:10:21;;;;;;;;;;;17.70;99.20;;;;;;5045375;28;19915;-86
2021/09/29 13:12:51;;;;;;;;;;;17.70;99.20;;;;;;5049858;28;19995;-85
2021/09/29 13:15:17;;;;;;;;;;;17.70;99.90;;;;;;5056522;28;20388;-87
2021/09/29 13:17:45;;;;;;;;;;;17.40;99.90;;;;;;5049292;28;19958;-85
2021/09/29 13:20:15;;;;;;;;;;;17.00;99.90;;;;;;5043578;28;19912;-85
2021/09/29 13:22:41;;;;;;;;;;;16.70;99.90;;;;;;5044746;28;19920;-85
2021/09/29 13:38:17;;;;;;;;;;;13.70;99.90;;;;;;5073969;28;19913;-86
2021/09/29 13:40:44;;;;;;;;;;;13.60;99.90;;;;;;5054737;28;20006;-86
2021/09/29 13:43:10;;;;;;;;;;;13.50;99.90;;;;;;5048487;28;19913;-85
2021/09/29 13:45:36;;;;;;;;;;;13.60;99.90;;;;;;5037092;28;19908;-84
2021/09/29 13:48:02;;;;;;;;;;;13.30;99.90;;;;;;5051477;28;19963;-85
2021/09/29 13:50:28;;;;;;;;;;;13.30;99.90;;;;;;5056142;28;19917;-85
2021/09/29 13:52:53;;;;;;;;;;;13.30;99.90;;;;;;5055612;28;19908;-85
2021/09/29 13:55:21;;;;;;;;;;;13.30;99.90;;;;;;5055706;28;19912;-84
2021/09/29 14:00:54;;;;;;;;;;;13.80;99.90;;;;;;5073625;28;20422;-86
2021/09/29 14:30:14;;;;;;;;;;;13.70;99.90;;;;;;5065077;28;19914;-86
2021/09/29 14:32:51;;;;;;;;;;;13.40;99.90;;;;;;5054464;28;19932;-86
2021/09/29 14:35:16;;;;;;;;;;;12.60;99.90;;;;;;5035740;28;19908;-85
2021/09/29 14:37:41;;;;;;;;;;;12.40;99.90;;;;;;5054805;28;19938;-86
2021/09/29 14:40:07;;;;;;;;;;;12.30;99.90;;;;;;5059792;28;19913;-85
2021/09/29 14:42:33;;;;;;;;;;;12.20;99.90;;;;;;5041940;28;19959;-85
2021/09/29 14:44:58;;;;;;;;;;;12.20;99.90;;;;;;5036187;28;20395;-85
2021/09/29 14:47:24;;;;;;;;;;;12.20;99.90;;;;;;5051771;28;19908;-85
2021/09/29 14:49:49;;;;;;;;;;;12.00;99.90;;;;;;5071260;28;19908;-84
2021/09/29 14:52:15;;;;;;;;;;;12.00;99.90;;;;;;5043409;28;19917;-84
2021/09/29 14:54:40;;;;;;;;;;;12.00;99.90;;;;;;5052640;28;20054;-84
2021/09/29 14:57:12;;;;;;;;;;;12.00;99.90;;;;;;5055380;28;19917;-86
2021/09/29 14:59:43;;;;;;;;;;;11.90;99.90;;;;;;5053115;28;19909;-84
2021/09/29 15:02:09;;;;;;;;;;;11.80;99.90;;;;;;5053244;28;19913;-85
2021/09/29 15:04:34;;;;;;;;;;;11.80;99.90;;;;;;5070748;28;20018;-86
2021/09/29 15:07:00;;;;;;;;;;;11.60;99.90;;;;;;5071005;28;19961;-85
2021/09/29 15:09:26;;;;;;;;;;;11.70;99.90;;;;;;5070979;28;19993;-84
2021/09/29 15:11:51;;;;;;;;;;;11.70;99.90;;;;;;5054727;28;19948;-85
2021/09/29 15:14:32;;;;;;;;;;;11.90;99.90;;;;;;5045161;28;19909;-86
2021/09/29 15:19:32;;;;;;;;;;;12.20;99.90;;;;;;5066327;28;20130;-86
2021/09/29 15:48:28;;;;;;;;;;;12.10;99.90;;;;;;5057425;28;20296;-87
2021/09/29 15:51:11;;;;;;;;;;;12.00;99.90;;;;;;5054526;28;19915;-86
2021/09/29 15:54:06;;;;;;;;;;;14.30;99.90;;;;;;5064934;28;19915;-86
2021/09/29 16:01:40;;;;;;;;;;;17.10;99.90;;;;;;5057063;28;19909;-87
2021/09/29 16:04:43;;;;;;;;;;;16.80;99.90;;;;;;5055288;28;19963;-87
2021/09/29 16:07:05;;;;;;;;;;;15.00;99.90;;;;;;5058126;28;19909;-86
2021/09/29 16:12:28;;;;;;;;;;;12.30;99.90;;;;;;5056796;28;19952;-86
2021/09/29 16:17:59;;;;;;;;;;;11.80;99.90;;;;;;5069645;28;20009;-86
2021/09/29 16:30:56;;;;;;;;;;;11.60;99.90;;;;;;5068916;28;19909;-86
2021/09/29 16:36:06;;;;;;;;;;;11.60;99.90;;;;;;5072850;28;19918;-86
2021/09/29 16:38:31;;;;;;;;;;;11.50;99.90;;;;;;5057632;28;19909;-86
2021/09/29 16:40:57;;;;;;;;;;;11.50;99.90;;;;;;5054277;28;20499;-86
2021/09/29 16:43:22;;;;;;;;;;;11.50;99.90;;;;;;5060091;28;19912;-85
2021/09/29 16:45:48;;;;;;;;;;;11.40;99.90;;;;;;5041634;28;19909;-86
2021/09/29 16:48:18;;;;;;;;;;;11.40;99.90;;;;;;5047464;28;19923;-85
2021/09/29 16:53:33;;;;;;;;;;;11.30;99.90;;;;;;5013827;28;19943;-86
2021/09/29 16:56:00;;;;;;;;;;;11.30;99.90;;;;;;5061557;28;20042;-86
2021/09/29 16:58:36;;;;;;;;;;;11.30;99.90;;;;;;5044280;28;19948;-86
2021/09/29 17:01:12;;;;;;;;;;;11.30;99.90;;;;;;5048088;28;20393;-86
2021/09/29 17:03:39;;;;;;;;;;;11.20;99.90;;;;;;5059964;28;19913;-86
2021/09/29 17:06:05;;;;;;;;;;;11.20;99.90;;;;;;5044002;28;20360;-86
2021/09/29 17:08:31;;;;;;;;;;;11.20;99.90;;;;;;5045124;28;20407;-86
2021/09/29 17:11:00;;;;;;;;;;;11.20;99.90;;;;;;5062763;28;19909;-86
2021/09/29 17:13:35;;;;;;;;;;;11.10;99.90;;;;;;5047827;28;19908;-86
2021/09/29 17:16:02;;;;;;;;;;;11.10;99.90;;;;;;5042810;28;19913;-86
2021/09/29 17:18:27;;;;;;;;;;;11.00;99.90;;;;;;5073804;28;19909;-86
2021/09/29 17:20:53;;;;;;;;;;;11.00;99.90;;;;;;5050311;28;20280;-85
2021/09/29 17:23:18;;;;;;;;;;;10.90;99.90;;;;;;5041846;28;19919;-86
2021/09/29 17:25:45;;;;;;;;;;;10.80;99.90;;;;;;5057148;28;20018;-86
2021/09/29 17:28:15;;;;;;;;;;;10.90;99.90;;;;;;5066808;28;20268;-85
2021/09/29 17:30:42;;;;;;;;;;;10.90;99.90;;;;;;5043680;28;19908;-86
2021/09/29 17:54:13;;;;;;;;;;;10.70;99.90;;;;;;5060919;28;20292;-86
2021/09/29 17:56:39;;;;;;;;;;;10.70;99.90;;;;;;5054659;28;19920;-86
2021/09/29 17:59:04;;;;;;;;;;;10.70;99.90;;;;;;5060685;28;19931;-87
2021/09/29 18:01:31;;;;;;;;;;;10.70;99.90;;;;;;5049923;28;19958;-86
2021/09/29 18:04:04;;;;;;;;;;;10.70;99.90;;;;;;5057170;28;20368;-87
2021/09/29 18:06:36;;;;;;;;;;;10.70;99.90;;;;;;5066669;28;19943;-87
2021/09/29 18:09:04;;;;;;;;;;;10.70;99.90;;;;;;5049895;28;19974;-86
2021/09/29 18:11:32;;;;;;;;;;;10.70;99.90;;;;;;5054185;28;19917;-86
2021/09/29 18:13:58;;;;;;;;;;;10.70;99.90;;;;;;5060258;28;19909;-86
2021/09/29 18:16:24;;;;;;;;;;;10.70;99.90;;;;;;5047990;28;19913;-86
2021/09/29 18:18:50;;;;;;;;;;;10.80;99.90;;;;;;5043373;28;19909;-86
2021/09/29 18:21:16;;;;;;;;;;;10.70;99.90;;;;;;5049910;28;19909;-87
2021/09/29 18:23:41;;;;;;;;;;;10.80;99.90;;;;;;5048237;28;20387;-88
2021/09/29 18:26:07;;;;;;;;;;;10.70;99.90;;;;;;5056090;28;19908;-86
2021/09/29 18:28:32;;;;;;;;;;;10.70;99.90;;;;;;5051774;28;19913;-87
2021/09/29 18:31:00;;;;;;;;;;;10.60;99.90;;;;;;5061862;28;19923;-86
2021/09/29 18:33:27;;;;;;;;;;;10.50;99.90;;;;;;5064899;28;20296;-87
2021/09/29 18:35:56;;;;;;;;;;;10.30;99.90;;;;;;5047454;28;19954;-86
2021/09/29 18:38:29;;;;;;;;;;;10.10;99.90;;;;;;5049497;28;19912;-86
2021/09/29 18:41:00;;;;;;;;;;;10.20;99.90;;;;;;5056476;28;19912;-87
2021/09/29 18:43:26;;;;;;;;;;;10.40;99.90;;;;;;5061383;28;19918;-87
2021/09/29 18:45:52;;;;;;;;;;;10.50;99.90;;;;;;5071104;28;19917;-86
2021/09/29 18:48:17;;;;;;;;;;;10.60;99.90;;;;;;5048839;28;19908;-86
2021/09/29 18:50:43;;;;;;;;;;;10.60;99.90;;;;;;5048217;28;20363;-86